Details for Ryanair at LMML




Go Back


Latest METAR
Local Time

LMML 181245Z 36005KT 9999 BKN022 27/21 Q1020 NOSIG
18/09/2018, 15:17:12

Description
Results
Ryanair Logo
Number of Pilots based at LMML
0 Pilots Based here
Number of Ryanair Flights Departed from LMML
6 Flights Departed
Number of Ryanair Flights Arrived at LMML
8 Flights Arrived
Number of Ryanair Schedules Departing from LMML
90 Schedules
Number of Ryanair Schedules Arriving at LMML
90 Schedules
Number of Ryanair Schedules Departing from LMML availible today
21 Schedules Today
Number of Ryanair Schedules Arriving at LMML availible today
21 Schedules Today
Average Landing Rate at LMML
-215 fpm
Ryanair Average Landing Rate at LMML
-187 fpm
Total Fuel Purchased at LMML by Ryanair
50,014.34 kgs / 110,261.61 lbs

Pilots Based at LMML


Pilot ID
Pilot Name
Pilot Rank
No. of Flights
No. of Flying Hours
There are no pilots assigned to this hub!   Will you be the first?
Content